Time;durP1;ratioP1;P1;durP2;ratioP2;P2;SDS_P1;SDS_P2;PMS_P1;PMS_P2;Temp;Humidity;BMP_temperature;BMP_pressure;BME280_temperature;BME280_humidity;BME280_pressure;Samples;Min_cycle;Max_cycle;Signal;HPM_P1;HPM_P2
2022/06/04 00:01:35;;;;;;;2.00;1.55;;;20.70;92.20;;;;;;5032405;28;20182;-84
2022/06/04 00:04:01;;;;;;;1.63;1.50;;;20.70;92.30;;;;;;5017514;28;20182;-84
2022/06/04 00:06:26;;;;;;;2.55;2.00;;;20.70;92.40;;;;;;5014671;28;20225;-84
2022/06/04 00:08:54;;;;;;;2.00;1.65;;;20.60;92.40;;;;;;5015471;28;20183;-84
2022/06/04 00:16:51;;;;;;;2.58;1.98;;;20.50;92.70;;;;;;5018622;28;20237;-82
2022/06/04 00:19:16;;;;;;;2.30;1.85;;;20.40;92.70;;;;;;5026507;28;20203;-85
2022/06/04 00:21:44;;;;;;;2.08;1.80;;;20.40;92.90;;;;;;5006651;28;20194;-84
2022/06/04 00:24:15;;;;;;;2.63;1.92;;;20.30;93.00;;;;;;5013936;28;20210;-85
2022/06/04 00:26:43;;;;;;;2.38;2.00;;;20.20;93.30;;;;;;5012472;28;20202;-81
2022/06/04 00:29:09;;;;;;;5.25;1.67;;;20.20;93.40;;;;;;5016262;28;20273;-84
2022/06/04 00:31:36;;;;;;;2.13;1.90;;;20.20;93.40;;;;;;5016629;28;20285;-79
2022/06/04 00:34:05;;;;;;;2.33;2.13;;;20.10;93.50;;;;;;5018722;28;20286;-77
2022/06/04 00:36:33;;;;;;;2.10;1.90;;;20.10;93.80;;;;;;5017091;28;20189;-84
2022/06/04 00:38:59;;;;;;;2.88;2.05;;;20.00;94.00;;;;;;5025792;28;20183;-83
2022/06/04 00:41:43;;;;;;;3.30;2.15;;;20.00;94.00;;;;;;5016494;28;20194;-83
2022/06/04 00:44:13;;;;;;;2.47;2.15;;;19.90;94.30;;;;;;5005884;28;20228;-84
2022/06/04 00:46:42;;;;;;;2.63;2.40;;;19.90;94.50;;;;;;5012761;28;20214;-83
2022/06/04 00:49:20;;;;;;;2.67;1.95;;;19.80;94.60;;;;;;5032291;28;20170;-84
2022/06/04 00:51:51;;;;;;;2.30;2.10;;;19.80;95.00;;;;;;5015634;28;20198;-81
2022/06/04 00:54:20;;;;;;;2.03;1.83;;;19.70;94.80;;;;;;5015343;28;20274;-83
2022/06/04 00:57:13;;;;;;;2.25;2.00;;;19.70;95.10;;;;;;5016103;28;20213;-83
2022/06/04 01:00:06;;;;;;;2.30;1.98;;;19.60;95.60;;;;;;5023647;28;20175;-83
2022/06/04 01:03:00;;;;;;;3.15;2.05;;;19.60;95.70;;;;;;5032055;28;20189;-83
2022/06/04 01:05:38;;;;;;;2.95;2.28;;;19.50;95.20;;;;;;5002987;28;20187;-85
2022/06/04 01:08:35;;;;;;;2.35;2.15;;;19.50;96.00;;;;;;5016605;28;20233;-85
2022/06/04 01:11:15;;;;;;;2.50;2.10;;;19.50;95.50;;;;;;5015831;28;20190;-83
2022/06/04 01:14:04;;;;;;;2.45;2.05;;;19.50;95.60;;;;;;5027554;28;20186;-87
2022/06/04 01:16:37;;;;;;;2.58;2.10;;;19.40;96.60;;;;;;5030463;28;20256;-85
2022/06/04 01:19:35;;;;;;;2.47;2.10;;;19.40;96.40;;;;;;5032883;28;20192;-85
2022/06/04 01:22:13;;;;;;;3.05;2.42;;;19.30;96.80;;;;;;5029097;28;20248;-80
2022/06/04 01:24:44;;;;;;;2.65;2.35;;;19.30;96.80;;;;;;5013979;28;20196;-86
2022/06/04 01:27:38;;;;;;;2.60;2.15;;;19.30;96.50;;;;;;5030006;28;20179;-85
2022/06/04 01:30:19;;;;;;;2.67;2.20;;;19.20;97.30;;;;;;5013281;28;20226;-82
2022/06/04 01:32:47;;;;;;;2.80;2.10;;;19.20;97.20;;;;;;5007255;28;20191;-83
2022/06/04 01:35:34;;;;;;;3.50;2.53;;;19.10;97.10;;;;;;5020605;28;20171;-84
2022/06/04 01:38:11;;;;;;;2.70;2.40;;;19.10;97.80;;;;;;5026619;28;20255;-83
2022/06/04 01:41:03;;;;;;;2.70;2.50;;;19.10;97.50;;;;;;5031064;28;20173;-81
2022/06/04 01:43:43;;;;;;;3.10;2.40;;;19.00;97.50;;;;;;5015372;28;20202;-81
2022/06/04 01:46:19;;;;;;;2.53;2.33;;;19.00;97.50;;;;;;5012837;28;20183;-83
2022/06/04 01:48:48;;;;;;;5.57;2.38;;;18.90;98.10;;;;;;5030004;28;20186;-84
2022/06/04 01:51:21;;;;;;;2.80;2.35;;;18.90;97.70;;;;;;5012051;28;20199;-83
2022/06/04 01:53:51;;;;;;;2.40;2.20;;;18.80;98.10;;;;;;5030854;28;20179;-84
2022/06/04 01:56:34;;;;;;;2.20;2.00;;;18.80;98.10;;;;;;5014144;28;20325;-85
2022/06/04 01:59:15;;;;;;;5.07;2.20;;;18.80;98.40;;;;;;5003427;28;20171;-79
2022/06/04 02:01:44;;;;;;;3.28;2.65;;;18.80;99.20;;;;;;5030712;28;20189;-83
2022/06/04 02:04:15;;;;;;;3.00;2.50;;;18.70;98.60;;;;;;5015043;28;20213;-83
2022/06/04 02:07:29;;;;;;;2.50;2.30;;;18.70;99.00;;;;;;5010382;28;20278;-85
2022/06/04 02:09:34;;;;;;;2.58;2.13;;;18.70;99.00;;;;;;5012964;28;20212;-84
2022/06/04 02:12:03;;;;;;;3.28;2.10;;;18.60;98.90;;;;;;5011095;28;20210;-84
2022/06/04 02:14:29;;;;;;;2.95;2.67;;;18.60;99.00;;;;;;5009642;28;20175;-83
2022/06/04 02:17:03;;;;;;;3.03;2.20;;;18.60;99.20;;;;;;5023768;28;20206;-85
2022/06/04 02:19:37;;;;;;;2.65;2.40;;;18.60;99.90;;;;;;5013701;28;20198;-84
2022/06/04 02:22:05;;;;;;;2.60;2.40;;;18.50;99.90;;;;;;5012539;28;20195;-86
2022/06/04 02:24:31;;;;;;;3.65;2.40;;;18.50;99.90;;;;;;5017457;28;20199;-85
2022/06/04 02:27:01;;;;;;;4.47;2.33;;;18.50;99.90;;;;;;5004217;28;20185;-85
2022/06/04 02:29:27;;;;;;;2.53;2.15;;;18.40;99.90;;;;;;5014390;28;20267;-85
2022/06/04 02:32:27;;;;;;;2.63;2.22;;;18.40;99.90;;;;;;5009889;28;20237;-83
2022/06/04 02:35:32;;;;;;;2.50;2.03;;;18.40;99.90;;;;;;5007424;28;20171;-85
2022/06/04 02:38:30;;;;;;;2.53;2.33;;;18.40;99.90;;;;;;4981959;28;20194;-85
2022/06/04 02:41:09;;;;;;;3.50;2.58;;;18.30;99.90;;;;;;4992127;28;20187;-85
2022/06/04 02:43:45;;;;;;;3.15;2.60;;;18.30;99.90;;;;;;4995485;28;20271;-85
2022/06/04 02:46:14;;;;;;;2.75;2.50;;;18.20;99.90;;;;;;5006463;28;20241;-85
2022/06/04 02:48:46;;;;;;;3.65;2.58;;;18.20;99.90;;;;;;5012610;28;20179;-85
2022/06/04 02:51:23;;;;;;;2.42;2.22;;;18.20;99.90;;;;;;5020299;28;20229;-85
2022/06/04 02:53:52;;;;;;;3.03;2.58;;;18.20;99.90;;;;;;5010176;28;20235;-84
2022/06/04 02:56:25;;;;;;;2.97;2.40;;;18.20;99.90;;;;;;5011875;28;20175;-84
2022/06/04 02:58:56;;;;;;;2.55;2.20;;;18.20;99.90;;;;;;5009302;28;20175;-81
2022/06/04 03:01:23;;;;;;;3.67;2.17;;;18.20;99.90;;;;;;5015127;28;20266;-84
2022/06/04 03:03:51;;;;;;;3.30;3.00;;;18.20;99.90;;;;;;5013711;28;20186;-85
2022/06/04 03:06:26;;;;;;;3.13;2.70;;;18.10;99.90;;;;;;5009337;28;20183;-84
2022/06/04 03:08:53;;;;;;;2.55;2.30;;;18.10;99.90;;;;;;5013226;28;20188;-83
2022/06/04 03:11:20;;;;;;;3.65;2.50;;;18.10;99.90;;;;;;5004653;28;20206;-77
2022/06/04 03:13:46;;;;;;;2.92;2.63;;;18.10;99.90;;;;;;5022972;28;20190;-72
2022/06/04 03:16:16;;;;;;;2.80;2.40;;;18.10;99.90;;;;;;4997826;28;1134663;-67
2022/06/04 03:18:42;;;;;;;2.50;2.30;;;18.10;99.90;;;;;;5031256;28;20344;-68
2022/06/04 03:21:08;;;;;;;2.38;2.17;;;18.10;99.90;;;;;;5016654;28;20201;-86
2022/06/04 03:23:36;;;;;;;3.92;3.33;;;18.00;99.90;;;;;;5014911;28;20262;-85
2022/06/04 03:26:05;;;;;;;3.00;2.78;;;18.00;99.90;;;;;;5013965;28;20166;-83
2022/06/04 03:28:31;;;;;;;5.07;3.08;;;18.00;99.90;;;;;;5010504;28;20230;-84
2022/06/04 03:30:57;;;;;;;3.30;2.22;;;18.00;99.90;;;;;;4999335;28;20199;-85
2022/06/04 03:33:25;;;;;;;3.20;2.55;;;18.00;99.90;;;;;;5019908;28;20209;-83
2022/06/04 03:35:53;;;;;;;4.00;2.55;;;18.00;99.90;;;;;;5029612;28;20205;-87
2022/06/04 03:38:21;;;;;;;3.65;2.78;;;17.90;99.90;;;;;;5014271;28;20233;-84
2022/06/04 03:40:46;;;;;;;3.60;2.63;;;18.00;99.90;;;;;;5004657;28;20175;-84
2022/06/04 03:43:17;;;;;;;3.05;2.65;;;17.90;99.90;;;;;;5016311;28;20173;-83
2022/06/04 03:45:45;;;;;;;3.63;2.58;;;17.90;99.90;;;;;;5024034;28;20167;-77
2022/06/04 03:48:10;;;;;;;3.00;2.70;;;17.90;99.90;;;;;;5033150;28;20186;-85
2022/06/04 03:50:38;;;;;;;2.72;2.50;;;17.90;99.90;;;;;;5011844;28;20263;-84
2022/06/04 03:53:04;;;;;;;3.00;2.70;;;17.90;99.90;;;;;;5030814;28;20270;-84
2022/06/04 03:55:32;;;;;;;3.28;2.97;;;17.90;99.90;;;;;;5012710;28;20281;-84
2022/06/04 03:57:58;;;;;;;2.90;2.60;;;17.90;99.90;;;;;;5014444;28;20182;-82
2022/06/04 04:00:29;;;;;;;3.47;3.10;;;17.90;99.90;;;;;;5016700;28;20183;-88
2022/06/04 04:03:02;;;;;;;2.85;2.55;;;17.90;99.90;;;;;;5012578;28;20199;-84
2022/06/04 04:05:33;;;;;;;4.07;2.70;;;17.80;99.90;;;;;;5012344;28;20297;-86
2022/06/04 04:08:04;;;;;;;4.00;2.90;;;17.80;99.90;;;;;;5016895;28;20206;-87
2022/06/04 04:10:31;;;;;;;3.55;2.55;;;17.80;99.90;;;;;;5017783;28;20201;-87
2022/06/04 04:12:58;;;;;;;3.05;2.55;;;17.80;99.90;;;;;;5015185;28;20270;-83
2022/06/04 04:15:24;;;;;;;3.08;2.47;;;17.80;99.90;;;;;;5015767;28;20190;-84
2022/06/04 04:17:50;;;;;;;3.47;2.78;;;17.80;99.90;;;;;;5026937;28;20210;-84
2022/06/04 04:20:22;;;;;;;2.63;2.42;;;17.80;99.90;;;;;;5011662;28;20181;-82
2022/06/04 04:22:47;;;;;;;3.30;2.80;;;17.80;99.90;;;;;;5017116;28;20202;-85
2022/06/04 04:25:18;;;;;;;2.95;2.53;;;17.80;99.90;;;;;;5016476;28;20254;-82
2022/06/04 04:27:47;;;;;;;3.05;2.75;;;17.80;99.90;;;;;;5014027;28;20171;-86
2022/06/04 04:30:16;;;;;;;3.35;2.63;;;17.80;99.90;;;;;;5015834;28;20222;-84
2022/06/04 04:32:46;;;;;;;5.13;2.95;;;17.80;99.90;;;;;;5017073;28;20175;-85
2022/06/04 04:35:19;;;;;;;4.63;2.88;;;17.80;99.90;;;;;;5011897;28;20230;-85
2022/06/04 04:37:47;;;;;;;3.30;3.00;;;17.80;99.90;;;;;;5013925;28;20179;-87
2022/06/04 04:40:16;;;;;;;2.95;2.75;;;17.80;99.90;;;;;;5016805;28;20194;-81
2022/06/04 04:42:42;;;;;;;3.33;2.70;;;17.80;99.90;;;;;;5005405;28;20198;-85
2022/06/04 04:45:08;;;;;;;4.45;3.00;;;17.80;99.90;;;;;;5015192;28;20170;-82
2022/06/04 04:47:39;;;;;;;3.35;3.05;;;17.80;99.90;;;;;;5016413;28;20252;-85
2022/06/04 04:50:08;;;;;;;3.28;2.80;;;17.80;99.90;;;;;;5013620;28;20190;-82
2022/06/04 04:52:34;;;;;;;3.78;2.95;;;17.80;99.90;;;;;;5016903;28;20185;-85
2022/06/04 04:54:59;;;;;;;3.28;2.97;;;17.80;99.90;;;;;;5011842;28;20189;-85
2022/06/04 04:57:27;;;;;;;3.42;3.10;;;17.80;99.90;;;;;;5010306;28;20368;-86
2022/06/04 04:59:53;;;;;;;3.63;3.15;;;17.80;99.90;;;;;;5015492;28;20195;-86
2022/06/04 05:02:18;;;;;;;3.60;3.13;;;17.80;99.90;;;;;;5016440;28;20201;-85
2022/06/04 05:04:46;;;;;;;3.08;2.78;;;17.80;99.90;;;;;;5016129;28;20182;-82
2022/06/04 05:07:12;;;;;;;3.22;2.92;;;17.80;99.90;;;;;;5008752;28;20181;-83
2022/06/04 05:09:41;;;;;;;4.18;3.10;;;17.80;99.90;;;;;;5007924;28;20511;-83
2022/06/04 05:12:08;;;;;;;3.70;3.22;;;17.80;99.90;;;;;;5024657;28;20230;-86
2022/06/04 05:14:39;;;;;;;4.10;3.08;;;17.90;99.90;;;;;;5015849;28;20180;-85
2022/06/04 05:17:05;;;;;;;4.18;2.90;;;17.90;99.90;;;;;;5014514;28;20234;-81
2022/06/04 05:19:31;;;;;;;3.42;3.13;;;17.90;99.90;;;;;;5015869;28;20209;-82
2022/06/04 05:21:59;;;;;;;3.40;3.10;;;17.90;99.90;;;;;;5004801;28;20176;-86
2022/06/04 05:24:33;;;;;;;3.72;3.40;;;17.90;99.90;;;;;;5013857;28;20209;-77
2022/06/04 05:27:01;;;;;;;3.33;3.03;;;17.90;99.90;;;;;;5002769;28;20185;-85
2022/06/04 05:29:28;;;;;;;3.55;3.05;;;18.00;99.90;;;;;;5016382;28;20178;-87
2022/06/04 05:31:57;;;;;;;3.20;2.90;;;18.00;99.90;;;;;;5010952;28;20199;-86
2022/06/04 05:34:26;;;;;;;3.13;2.83;;;18.00;99.90;;;;;;5006637;28;20176;-84
2022/06/04 05:36:55;;;;;;;4.43;3.10;;;18.00;99.90;;;;;;5007437;28;20199;-87
2022/06/04 05:39:26;;;;;;;4.18;3.10;;;18.10;99.90;;;;;;5016987;28;20158;-82
2022/06/04 05:41:52;;;;;;;3.15;2.83;;;18.10;99.90;;;;;;5015761;28;20171;-86
2022/06/04 05:44:22;;;;;;;3.63;3.33;;;18.10;99.90;;;;;;5011913;28;20263;-85
2022/06/04 05:46:48;;;;;;;3.67;3.00;;;18.10;99.90;;;;;;5029054;28;20186;-83
2022/06/04 05:49:15;;;;;;;3.95;2.70;;;18.20;99.90;;;;;;5011564;28;20197;-81
2022/06/04 05:51:42;;;;;;;3.20;2.90;;;18.20;99.90;;;;;;5015610;28;20195;-86
2022/06/04 05:54:09;;;;;;;3.58;2.95;;;18.30;99.90;;;;;;5016908;28;20179;-81
2022/06/04 05:56:40;;;;;;;4.53;3.55;;;18.40;99.90;;;;;;5019561;28;20234;-90
2022/06/04 05:59:11;;;;;;;3.50;3.20;;;18.40;99.90;;;;;;5012481;28;20206;-82
2022/06/04 06:01:40;;;;;;;3.25;2.95;;;18.40;99.90;;;;;;5013064;28;20180;-82
2022/06/04 06:04:08;;;;;;;8.02;2.85;;;18.50;99.90;;;;;;5032662;28;20233;-86
2022/06/04 06:06:37;;;;;;;4.45;2.75;;;18.50;99.90;;;;;;5015482;28;20190;-87
2022/06/04 06:09:09;;;;;;;3.42;3.13;;;18.60;99.90;;;;;;5015499;28;20174;-84
2022/06/04 06:11:35;;;;;;;3.88;3.42;;;18.60;99.90;;;;;;5015105;28;20194;-86
2022/06/04 06:14:07;;;;;;;3.10;2.80;;;18.70;99.90;;;;;;5018863;28;20185;-87
2022/06/04 06:16:39;;;;;;;3.50;2.78;;;18.70;99.90;;;;;;5007595;28;20211;-87
2022/06/04 06:19:05;;;;;;;3.30;3.00;;;18.80;99.90;;;;;;5003617;28;20171;-88
2022/06/04 06:21:36;;;;;;;3.78;2.80;;;18.80;99.90;;;;;;5015515;28;20284;-87
2022/06/04 06:24:04;;;;;;;4.22;2.90;;;18.90;99.90;;;;;;5014964;28;20245;-88
2022/06/04 06:26:32;;;;;;;3.70;3.03;;;18.90;99.90;;;;;;5010619;28;20193;-86
2022/06/04 06:29:06;;;;;;;2.72;2.40;;;19.00;99.90;;;;;;5022169;28;20261;-84
2022/06/04 06:31:33;;;;;;;4.55;2.90;;;19.10;99.90;;;;;;5022121;28;20283;-87
2022/06/04 06:34:02;;;;;;;3.38;3.08;;;19.20;99.90;;;;;;5007696;28;20170;-88
2022/06/04 06:36:30;;;;;;;3.58;2.50;;;19.20;99.90;;;;;;5014086;28;20228;-88
2022/06/04 06:38:58;;;;;;;3.55;2.90;;;19.30;99.90;;;;;;5015222;28;20228;-85
2022/06/04 06:41:24;;;;;;;3.30;2.95;;;19.40;99.90;;;;;;5013548;28;20179;-88
2022/06/04 06:43:51;;;;;;;3.42;3.13;;;19.50;99.90;;;;;;5014178;28;20212;-87
2022/06/04 06:46:20;;;;;;;3.05;2.83;;;19.50;99.90;;;;;;5024669;28;20257;-87
2022/06/04 06:48:53;;;;;;;3.10;2.70;;;19.60;99.90;;;;;;5015679;28;20189;-86
2022/06/04 06:51:20;;;;;;;3.50;3.00;;;19.70;99.90;;;;;;5014031;28;20194;-86
2022/06/04 06:53:46;;;;;;;3.80;3.13;;;19.80;99.90;;;;;;5014490;28;20185;-86
2022/06/04 06:56:17;;;;;;;3.03;2.70;;;19.90;99.90;;;;;;5015488;28;20206;-87
2022/06/04 06:58:44;;;;;;;3.20;2.80;;;20.00;99.90;;;;;;5015971;28;20171;-85
2022/06/04 07:01:11;;;;;;;3.33;3.03;;;20.10;99.90;;;;;;5015088;28;20182;-88
2022/06/04 07:03:38;;;;;;;4.57;3.10;;;20.20;99.90;;;;;;5016299;28;20225;-79
2022/06/04 07:06:07;;;;;;;4.72;3.30;;;20.30;99.90;;;;;;5012642;28;20195;-87
2022/06/04 07:08:35;;;;;;;3.60;3.28;;;20.40;99.90;;;;;;5015650;28;20171;-82
2022/06/04 07:11:03;;;;;;;3.80;3.22;;;20.40;99.90;;;;;;5009150;28;20226;-86
2022/06/04 07:13:33;;;;;;;3.45;2.78;;;20.50;99.90;;;;;;5005894;28;20170;-85
2022/06/04 07:16:04;;;;;;;3.50;3.17;;;20.50;99.90;;;;;;5009489;28;20203;-83
2022/06/04 07:18:32;;;;;;;4.18;3.60;;;20.60;99.90;;;;;;5008752;28;20185;-85
2022/06/04 07:21:05;;;;;;;3.72;3.20;;;20.70;99.90;;;;;;5014380;28;20202;-84
2022/06/04 07:23:35;;;;;;;3.42;3.00;;;20.70;99.90;;;;;;5017660;28;20186;-86
2022/06/04 07:26:05;;;;;;;4.35;3.42;;;20.80;99.90;;;;;;5013829;28;20186;-87
2022/06/04 07:28:32;;;;;;;5.55;3.50;;;20.80;99.90;;;;;;5009381;28;20203;-86
2022/06/04 07:30:58;;;;;;;3.45;3.13;;;20.90;99.90;;;;;;5003931;28;20286;-80
2022/06/04 07:33:27;;;;;;;3.67;3.33;;;21.00;99.90;;;;;;5030921;28;20267;-82
2022/06/04 07:35:53;;;;;;;3.55;3.17;;;21.00;99.90;;;;;;5003379;28;20179;-77
2022/06/04 07:38:21;;;;;;;3.42;3.00;;;21.10;99.90;;;;;;5018255;28;20181;-81
2022/06/04 07:40:46;;;;;;;3.92;2.92;;;21.20;99.90;;;;;;5015072;28;20191;-83
2022/06/04 07:43:16;;;;;;;4.00;3.60;;;21.30;99.90;;;;;;5010657;28;20221;-84
2022/06/04 07:45:41;;;;;;;5.63;3.25;;;21.40;99.90;;;;;;5014062;28;20179;-85
2022/06/04 07:48:10;;;;;;;4.07;3.28;;;21.50;99.90;;;;;;5010112;28;20298;-87
2022/06/04 07:50:39;;;;;;;4.50;3.13;;;21.60;99.90;;;;;;5014873;28;20195;-84
2022/06/04 07:53:06;;;;;;;3.45;3.10;;;21.60;99.90;;;;;;5003397;28;20176;-86
2022/06/04 07:55:33;;;;;;;3.92;3.63;;;21.70;99.90;;;;;;5018092;28;20260;-87
2022/06/04 07:58:01;;;;;;;4.40;3.70;;;21.80;99.90;;;;;;5018337;28;20240;-83
2022/06/04 08:00:26;;;;;;;5.10;4.07;;;21.80;99.90;;;;;;5018047;28;20186;-85
2022/06/04 08:02:52;;;;;;;3.78;3.35;;;21.90;99.90;;;;;;5030828;28;20173;-70
2022/06/04 08:05:18;;;;;;;5.10;3.85;;;21.90;99.90;;;;;;5028439;28;20210;-68
2022/06/04 08:07:44;;;;;;;3.83;3.45;;;22.00;99.90;;;;;;5035915;28;20191;-80
2022/06/04 08:10:16;;;;;;;3.97;2.67;;;22.00;99.90;;;;;;5038964;28;20175;-71
2022/06/04 08:12:48;;;;;;;3.85;3.03;;;22.00;99.90;;;;;;5023438;28;20196;-67
2022/06/04 08:15:14;;;;;;;3.28;2.97;;;22.10;99.90;;;;;;5009923;28;20296;-85
2022/06/04 08:17:43;;;;;;;3.50;3.20;;;22.10;99.90;;;;;;5016486;28;20174;-81
2022/06/04 08:20:11;;;;;;;4.82;3.20;;;22.20;99.90;;;;;;5014700;28;20167;-85
2022/06/04 08:22:40;;;;;;;3.58;3.28;;;22.30;99.90;;;;;;5009573;28;20466;-87
2022/06/04 08:25:08;;;;;;;3.55;3.25;;;22.40;99.90;;;;;;5017837;28;20221;-87
2022/06/04 08:27:34;;;;;;;4.32;3.47;;;22.50;99.90;;;;;;5015468;28;20381;-90
2022/06/04 08:30:00;;;;;;;3.80;3.38;;;22.60;99.90;;;;;;5015745;28;20194;-85
2022/06/04 08:32:28;;;;;;;3.58;3.05;;;22.60;99.90;;;;;;5011200;28;20198;-88
2022/06/04 08:34:54;;;;;;;5.10;3.20;;;22.70;99.90;;;;;;5010416;28;20206;-84
2022/06/04 08:37:26;;;;;;;3.25;2.95;;;22.80;99.90;;;;;;5022103;28;20176;-87
2022/06/04 08:39:52;;;;;;;3.20;2.90;;;22.80;99.90;;;;;;4999051;28;20171;-84
2022/06/04 08:42:32;;;;;;;4.22;3.30;;;22.90;99.90;;;;;;4998053;28;20205;-83
2022/06/04 08:45:01;;;;;;;3.53;3.13;;;22.90;99.90;;;;;;5009609;28;20182;-86
2022/06/04 08:47:33;;;;;;;4.60;2.88;;;22.90;99.90;;;;;;5012993;28;20187;-87
2022/06/04 08:50:10;;;;;;;3.45;3.15;;;22.80;99.90;;;;;;5005626;28;20206;-83
2022/06/04 08:52:43;;;;;;;3.00;2.80;;;22.80;99.90;;;;;;5021026;28;20186;-84
2022/06/04 08:58:07;;;;;;;2.85;2.50;;;22.80;99.90;;;;;;5001209;28;20226;-84
2022/06/04 09:00:57;;;;;;;3.10;2.67;;;22.80;99.90;;;;;;5034983;28;20178;-84
2022/06/04 09:03:47;;;;;;;3.15;2.85;;;22.80;99.90;;;;;;5016171;28;20174;-82
2022/06/04 09:06:17;;;;;;;3.92;3.00;;;22.80;99.90;;;;;;4982705;28;20197;-84
2022/06/04 09:08:51;;;;;;;3.45;2.92;;;22.80;99.90;;;;;;5016629;28;20202;-85
2022/06/04 09:11:28;;;;;;;3.08;2.80;;;22.90;99.90;;;;;;5013274;28;20187;-83
2022/06/04 09:14:19;;;;;;;3.13;2.90;;;23.00;99.90;;;;;;5010954;28;20206;-88
2022/06/04 09:16:54;;;;;;;4.90;3.28;;;23.10;99.90;;;;;;5010047;28;20211;-84
2022/06/04 09:19:24;;;;;;;5.80;3.90;;;23.10;99.90;;;;;;5015223;28;20179;-80
2022/06/04 09:21:50;;;;;;;4.15;3.78;;;23.30;99.90;;;;;;5003220;28;20194;-90
2022/06/04 09:24:16;;;;;;;4.75;3.95;;;23.30;99.90;;;;;;5019059;28;20172;-84
2022/06/04 09:26:44;;;;;;;4.50;4.03;;;23.50;99.90;;;;;;5014782;28;20335;-81
2022/06/04 09:29:32;;;;;;;3.83;3.53;;;23.60;99.90;;;;;;5015727;28;20292;-82
2022/06/04 09:32:01;;;;;;;4.22;3.35;;;23.70;99.90;;;;;;5030227;28;20270;-83
2022/06/04 09:34:39;;;;;;;4.00;3.60;;;23.90;99.90;;;;;;5014319;28;20179;-86
2022/06/04 09:37:11;;;;;;;3.72;3.38;;;24.00;99.90;;;;;;5005964;28;20237;-78
2022/06/04 09:39:40;;;;;;;4.35;3.55;;;24.10;99.90;;;;;;5016621;28;20206;-77
2022/06/04 09:42:26;;;;;;;7.55;3.92;;;24.20;99.90;;;;;;5007083;28;20282;-76
2022/06/04 09:45:01;;;;;;;3.90;3.50;;;24.30;99.90;;;;;;5021551;28;20450;-78
2022/06/04 09:47:48;;;;;;;3.45;3.05;;;24.40;99.90;;;;;;5014014;28;20212;-79
2022/06/04 09:50:19;;;;;;;3.22;2.92;;;24.50;99.90;;;;;;5014227;28;20175;-81
2022/06/04 09:52:56;;;;;;;3.33;3.08;;;24.50;99.90;;;;;;5030981;28;20182;-78
2022/06/04 09:55:24;;;;;;;3.95;2.97;;;24.60;99.90;;;;;;5017005;28;20197;-77
2022/06/04 09:58:09;;;;;;;5.03;2.97;;;24.70;99.90;;;;;;4999325;28;20429;-80
2022/06/04 10:00:37;;;;;;;3.67;3.33;;;24.80;99.90;;;;;;5014785;28;20269;-80
2022/06/04 10:03:26;;;;;;;3.30;3.00;;;24.80;99.90;;;;;;5009809;28;20256;-80
2022/06/04 10:05:52;;;;;;;3.88;2.78;;;24.90;99.90;;;;;;5004268;28;20175;-78
2022/06/04 10:08:26;;;;;;;2.95;2.75;;;24.90;99.90;;;;;;5034836;28;20187;-79
2022/06/04 10:11:03;;;;;;;3.50;3.00;;;25.10;99.90;;;;;;5023688;28;20205;-81
2022/06/04 10:13:43;;;;;;;4.55;3.40;;;25.20;99.90;;;;;;5015068;28;20174;-84
2022/06/04 10:16:23;;;;;;;4.68;3.45;;;25.30;99.90;;;;;;5014738;28;20254;-84
2022/06/04 10:19:16;;;;;;;4.05;3.13;;;25.50;99.90;;;;;;5031933;28;20177;-85
2022/06/04 10:22:04;;;;;;;3.50;3.20;;;25.60;99.90;;;;;;5007342;28;20197;-85
2022/06/04 10:24:36;;;;;;;3.33;3.03;;;25.70;99.90;;;;;;5016616;28;20170;-84
2022/06/04 10:27:22;;;;;;;3.40;3.10;;;25.80;99.90;;;;;;5015786;28;20236;-81
2022/06/04 10:30:15;;;;;;;4.53;2.72;;;25.80;99.90;;;;;;5029670;28;20210;-89
2022/06/04 10:33:02;;;;;;;3.45;2.67;;;25.80;99.90;;;;;;5031745;28;20179;-75
2022/06/04 10:35:52;;;;;;;4.93;3.03;;;25.90;99.90;;;;;;5030505;28;20249;-85
2022/06/04 10:38:43;;;;;;;3.40;3.10;;;26.00;99.90;;;;;;5014650;28;20241;-78
2022/06/04 10:41:47;;;;;;;3.60;2.78;;;26.10;99.90;;;;;;5014221;28;20236;-84
2022/06/04 10:44:37;;;;;;;3.20;2.90;;;26.10;99.90;;;;;;4972559;28;20179;-81
2022/06/04 10:47:34;;;;;;;2.90;2.65;;;26.20;99.90;;;;;;5011898;28;20385;-84
2022/06/04 10:50:04;;;;;;;2.83;2.63;;;26.20;99.90;;;;;;5014510;28;20178;-81
2022/06/04 10:52:45;;;;;;;3.33;3.03;;;26.30;99.90;;;;;;5020606;28;20247;-81
2022/06/04 10:55:22;;;;;;;3.33;3.03;;;26.50;99.90;;;;;;5007862;28;20202;-78
2022/06/04 10:58:06;;;;;;;2.85;2.55;;;26.60;99.90;;;;;;5008588;28;20278;-85
2022/06/04 11:00:52;;;;;;;3.47;3.10;;;26.70;99.90;;;;;;5023643;28;20199;-82
2022/06/04 11:03:38;;;;;;;4.05;3.03;;;26.80;99.90;;;;;;5012041;28;20183;-83
2022/06/04 11:06:23;;;;;;;2.92;2.67;;;26.90;99.90;;;;;;5025901;28;20183;-80
2022/06/04 11:08:58;;;;;;;3.58;2.92;;;27.10;99.90;;;;;;5021816;28;20206;-84
2022/06/04 11:11:31;;;;;;;3.75;3.45;;;27.30;99.90;;;;;;5011780;28;20277;-80
2022/06/04 11:14:03;;;;;;;3.22;2.92;;;27.40;99.90;;;;;;5010582;28;20187;-86
2022/06/04 11:16:33;;;;;;;4.03;3.63;;;27.50;99.90;;;;;;5011138;28;20210;-84
2022/06/04 11:19:24;;;;;;;5.13;3.30;;;27.60;99.90;;;;;;5014669;28;20175;-83
2022/06/04 11:21:55;;;;;;;3.63;2.78;;;27.80;99.90;;;;;;5031224;28;20183;-84
2022/06/04 11:24:35;;;;;;;3.63;3.00;;;27.90;99.90;;;;;;5033994;28;20185;-83
2022/06/04 11:27:10;;;;;;;3.30;3.00;;;28.10;99.90;;;;;;5013217;28;20206;-83
2022/06/04 11:29:41;;;;;;;3.83;3.53;;;28.40;99.90;;;;;;5031080;28;20181;-82
2022/06/04 11:32:21;;;;;;;3.40;3.10;;;28.60;99.90;;;;;;5014975;28;20260;-80
2022/06/04 11:34:50;;;;;;;3.53;3.17;;;28.70;99.90;;;;;;5013142;28;20178;-82
2022/06/04 11:37:15;;;;;;;4.05;3.65;;;28.80;99.90;;;;;;5027369;28;20214;-83
2022/06/04 11:40:07;;;;;;;3.90;3.08;;;28.80;99.90;;;;;;5012573;28;20182;-82
2022/06/04 11:42:48;;;;;;;3.05;2.72;;;28.80;99.90;;;;;;5030718;28;20186;-85
2022/06/04 11:45:47;;;;;;;3.10;2.80;;;28.80;99.70;;;;;;5030822;28;20222;-84
2022/06/04 11:48:31;;;;;;;3.50;3.20;;;28.90;99.50;;;;;;5031023;28;20179;-85
2022/06/04 11:51:22;;;;;;;3.15;2.75;;;29.00;99.50;;;;;;5029515;28;20237;-80
2022/06/04 11:54:02;;;;;;;3.10;2.90;;;29.10;99.40;;;;;;5026403;28;20181;-82
2022/06/04 11:56:36;;;;;;;3.63;3.05;;;29.20;98.70;;;;;;5031976;28;20194;-85
2022/06/04 11:59:11;;;;;;;3.03;2.83;;;29.30;98.90;;;;;;5030637;28;20194;-79
2022/06/04 12:01:45;;;;;;;3.08;2.70;;;29.40;99.60;;;;;;5031828;28;20514;-82
2022/06/04 12:04:19;;;;;;;3.03;2.75;;;29.50;99.50;;;;;;5013438;28;20188;-84
2022/06/04 12:06:57;;;;;;;3.65;2.63;;;29.60;99.40;;;;;;5029340;28;20268;-84
2022/06/04 12:09:38;;;;;;;2.63;2.42;;;29.80;99.20;;;;;;5028416;28;20182;-80
2022/06/04 12:12:37;;;;;;;3.33;2.55;;;29.90;98.80;;;;;;5012072;28;20221;-84
2022/06/04 12:15:42;;;;;;;2.70;2.50;;;30.10;97.60;;;;;;5010248;28;20213;-83
2022/06/04 12:18:30;;;;;;;4.13;2.40;;;30.30;98.10;;;;;;5014958;28;20266;-81
2022/06/04 12:24:17;;;;;;;2.42;2.22;;;30.60;97.60;;;;;;5013376;28;20193;-85
2022/06/04 12:26:50;;;;;;;2.63;2.40;;;30.70;96.10;;;;;;5012721;28;20205;-83
2022/06/04 12:29:47;;;;;;;2.40;2.20;;;30.80;97.30;;;;;;5030258;28;20181;-82
2022/06/04 12:32:22;;;;;;;2.75;2.55;;;30.90;96.00;;;;;;5012146;28;20221;-84
2022/06/04 12:35:08;;;;;;;3.05;2.75;;;30.90;95.50;;;;;;5027471;28;20174;-80
2022/06/04 12:37:41;;;;;;;2.63;2.42;;;31.00;95.80;;;;;;5015777;28;20182;-85
2022/06/04 12:40:35;;;;;;;4.13;2.70;;;31.00;95.30;;;;;;5014240;28;20206;-74
2022/06/04 12:43:01;;;;;;;2.80;2.53;;;31.00;94.50;;;;;;5014421;28;20193;-86
2022/06/04 12:45:41;;;;;;;2.55;2.35;;;31.00;95.00;;;;;;5030697;28;20174;-82
2022/06/04 12:48:32;;;;;;;2.42;2.22;;;31.00;94.30;;;;;;5014429;28;20288;-80
2022/06/04 12:51:15;;;;;;;2.78;2.30;;;31.10;94.00;;;;;;5012286;28;20205;-84
2022/06/04 12:53:56;;;;;;;2.88;2.40;;;31.20;94.20;;;;;;5013855;28;20259;-83
2022/06/04 12:56:45;;;;;;;2.47;2.28;;;31.20;93.60;;;;;;5029302;28;20166;-82
2022/06/04 12:59:36;;;;;;;2.72;2.40;;;31.30;93.50;;;;;;5014360;28;20174;-79
2022/06/04 13:02:33;;;;;;;2.78;2.35;;;31.30;93.30;;;;;;5028552;28;20209;-84
2022/06/04 13:05:18;;;;;;;2.53;2.30;;;31.40;93.10;;;;;;5011266;28;20209;-84
2022/06/04 13:07:56;;;;;;;2.88;2.25;;;31.50;92.20;;;;;;5010048;28;20182;-82
2022/06/04 13:10:36;;;;;;;2.10;2.00;;;31.50;92.80;;;;;;5015282;28;20224;-85
2022/06/04 13:13:32;;;;;;;2.60;2.40;;;31.50;92.50;;;;;;5016727;28;20245;-82
2022/06/04 13:16:03;;;;;;;3.58;2.15;;;31.60;91.90;;;;;;5014869;28;20256;-86
2022/06/04 13:18:37;;;;;;;2.70;2.15;;;31.70;92.50;;;;;;5014153;28;20190;-81
2022/06/04 13:21:17;;;;;;;3.40;1.98;;;31.70;91.70;;;;;;5013429;28;20192;-86
2022/06/04 13:23:59;;;;;;;2.30;2.10;;;31.70;90.60;;;;;;5010817;28;20204;-84
2022/06/04 13:26:42;;;;;;;2.08;1.98;;;31.80;90.40;;;;;;5005925;28;20186;-80
2022/06/04 13:29:27;;;;;;;2.08;1.98;;;31.80;90.60;;;;;;5013697;28;20264;-83
2022/06/04 13:32:14;;;;;;;2.78;2.13;;;31.90;90.10;;;;;;5014652;28;20194;-86
2022/06/04 13:34:41;;;;;;;2.30;1.98;;;31.90;89.70;;;;;;5025629;28;20206;-83